Time;durP1;ratioP1;P1;durP2;ratioP2;P2;SDS_P1;SDS_P2;PMS_P1;PMS_P2;Temp;Humidity;BMP_temperature;BMP_pressure;BME280_temperature;BME280_humidity;BME280_pressure;Samples;Min_cycle;Max_cycle;Signal;HPM_P1;HPM_P2
2023/10/20 00:01:56;;;;;;;4.10;3.40;;;15.70;99.90;;;15.97;nan;97796.66;4988919;28;20656;-66
2023/10/20 00:04:24;;;;;;;4.13;2.60;;;15.80;99.90;;;15.97;nan;97801.13;4990043;28;21249;-65
2023/10/20 00:06:51;;;;;;;2.27;2.07;;;15.80;99.90;;;15.99;nan;97799.09;4992184;28;21083;-65
2023/10/20 00:09:19;;;;;;;5.43;2.77;;;15.80;99.90;;;15.99;nan;97797.25;4988890;28;20673;-65
2023/10/20 00:11:47;;;;;;;2.47;2.27;;;15.80;99.90;;;16.02;nan;97788.13;4975622;28;21199;-65
2023/10/20 00:14:14;;;;;;;3.77;2.80;;;15.80;99.90;;;16.04;nan;97796.59;4988556;28;21048;-65
2023/10/20 00:16:41;;;;;;;3.43;2.37;;;15.80;99.90;;;16.04;nan;97792.16;4992379;28;20641;-65
2023/10/20 00:19:08;;;;;;;2.00;1.90;;;15.80;99.90;;;16.06;nan;97787.50;4988147;28;21689;-65
2023/10/20 00:21:35;;;;;;;3.27;1.93;;;15.80;99.90;;;16.04;nan;97776.38;4973209;28;21195;-65
2023/10/20 00:24:02;;;;;;;3.23;2.30;;;15.80;99.90;;;16.06;nan;97776.97;4977205;28;20647;-64
2023/10/20 00:26:29;;;;;;;3.60;2.07;;;15.80;99.90;;;16.03;nan;97769.53;4980420;28;21236;-65
2023/10/20 00:28:56;;;;;;;2.73;2.20;;;15.80;99.90;;;16.02;nan;97769.72;4990113;28;20712;-63
2023/10/20 00:31:25;;;;;;;2.47;2.27;;;15.80;99.90;;;16.02;nan;97764.47;4966918;28;21287;-65
2023/10/20 00:33:52;;;;;;;5.70;2.60;;;15.80;99.90;;;16.02;nan;97767.91;4988959;28;20635;-65
2023/10/20 00:36:20;;;;;;;4.57;3.10;;;15.80;99.90;;;16.02;nan;97767.91;4988513;28;20657;-65
2023/10/20 00:38:47;;;;;;;2.10;1.97;;;15.80;99.90;;;16.03;nan;97764.28;4988636;28;21089;-66
2023/10/20 00:41:14;;;;;;;4.97;2.87;;;15.80;99.90;;;16.02;nan;97757.38;4991065;28;20635;-65
2023/10/20 00:43:41;;;;;;;3.40;2.87;;;15.80;99.90;;;16.02;nan;97740.78;4987240;28;20647;-64
2023/10/20 00:46:10;;;;;;;4.73;3.00;;;15.80;99.90;;;16.01;nan;97739.19;4990936;28;21057;-65
2023/10/20 00:48:37;;;;;;;2.47;1.70;;;15.80;99.90;;;16.03;nan;97747.69;4967484;28;21050;-65
2023/10/20 00:51:05;;;;;;;4.80;2.60;;;15.80;99.90;;;16.03;nan;97753.75;4973803;28;21243;-64
2023/10/20 00:53:34;;;;;;;4.20;3.03;;;15.80;99.90;;;16.03;nan;97755.56;4974777;28;20638;-65
2023/10/20 00:56:04;;;;;;;4.97;3.30;;;15.80;99.90;;;16.02;nan;97744.22;4993496;28;20736;-65
2023/10/20 00:58:32;;;;;;;2.53;1.20;;;15.80;99.90;;;16.05;nan;97750.91;4982663;28;20696;-65
2023/10/20 01:00:59;;;;;;;6.07;3.43;;;15.80;99.90;;;16.07;nan;97733.88;4983034;28;20639;-64
2023/10/20 01:03:27;;;;;;;1.90;1.80;;;15.80;99.90;;;16.08;nan;97729.41;4981705;28;20638;-65
2023/10/20 01:05:55;;;;;;;6.00;3.53;;;15.80;99.90;;;16.07;nan;97718.09;4987765;28;20682;-65
2023/10/20 01:08:22;;;;;;;5.53;3.00;;;15.80;99.90;;;16.08;nan;97708.38;4989500;28;20664;-65
2023/10/20 01:10:52;;;;;;;3.80;2.60;;;15.80;99.90;;;16.08;nan;97711.00;4988233;28;20627;-66
2023/10/20 01:13:21;;;;;;;2.20;1.97;;;15.80;99.90;;;16.09;nan;97699.47;4990656;28;20641;-65
2023/10/20 01:15:49;;;;;;;2.17;2.03;;;15.90;99.90;;;16.10;nan;97699.25;4986534;28;20642;-65
2023/10/20 01:18:17;;;;;;;1.80;1.70;;;15.80;99.90;;;16.08;nan;97695.22;4990614;28;20638;-64
2023/10/20 01:20:44;;;;;;;3.57;2.40;;;15.80;99.90;;;16.07;nan;97680.47;4980505;28;20642;-65
2023/10/20 01:23:11;;;;;;;4.53;2.70;;;15.80;99.90;;;16.05;nan;97672.81;4962086;28;21230;-65
2023/10/20 01:25:38;;;;;;;4.97;3.60;;;15.80;99.90;;;16.06;nan;97676.22;4987212;28;20724;-65
2023/10/20 01:28:05;;;;;;;3.93;3.40;;;15.80;99.90;;;16.05;nan;97666.75;4989256;28;20637;-65
2023/10/20 01:30:32;;;;;;;5.40;4.17;;;15.80;99.90;;;16.03;nan;97671.41;4987623;28;20673;-66
2023/10/20 01:32:59;;;;;;;4.80;3.67;;;15.80;99.90;;;16.03;nan;97674.06;4990025;28;20654;-65
2023/10/20 01:35:26;;;;;;;5.70;3.30;;;15.80;99.90;;;16.03;nan;97674.06;4987448;28;20638;-66
2023/10/20 01:37:53;;;;;;;4.03;2.17;;;15.80;99.90;;;16.06;nan;97663.09;4989306;28;21176;-64
2023/10/20 01:40:21;;;;;;;2.77;2.50;;;15.80;99.90;;;16.06;nan;97642.03;4987729;28;20654;-64
2023/10/20 01:42:48;;;;;;;3.53;2.30;;;15.80;99.90;;;16.04;nan;97636.19;4988705;28;21210;-64
2023/10/20 01:45:15;;;;;;;2.23;2.03;;;15.80;99.90;;;16.04;nan;97629.13;4985373;28;20634;-64
2023/10/20 01:47:42;;;;;;;3.20;2.90;;;15.80;99.90;;;16.02;nan;97620.66;4987803;28;20686;-65
2023/10/20 01:50:10;;;;;;;4.67;3.43;;;15.80;99.90;;;16.01;nan;97624.31;4988557;28;21207;-65
2023/10/20 01:52:37;;;;;;;6.13;4.00;;;15.80;99.90;;;16.01;nan;97624.31;4988185;28;20638;-65
2023/10/20 01:55:05;;;;;;;2.17;1.50;;;15.80;99.90;;;16.00;nan;97632.41;4988024;28;20640;-65
2023/10/20 01:57:32;;;;;;;4.97;2.63;;;15.80;99.90;;;16.00;nan;97616.63;4977980;28;20647;-65
2023/10/20 02:00:01;;;;;;;5.17;3.77;;;15.80;99.90;;;15.98;nan;97608.16;4972234;28;21052;-65
2023/10/20 02:02:28;;;;;;;2.27;2.07;;;15.70;99.90;;;15.98;nan;97606.31;4979200;28;21486;-66
2023/10/20 02:04:55;;;;;;;1.93;1.80;;;15.70;99.90;;;15.96;nan;97594.41;4971355;28;20639;-65
2023/10/20 02:07:22;;;;;;;3.90;2.40;;;15.70;99.90;;;15.95;nan;97588.34;4976170;28;20669;-66
2023/10/20 02:09:50;;;;;;;4.67;3.70;;;15.70;99.90;;;15.94;nan;97578.06;4970492;28;20666;-65
2023/10/20 02:12:17;;;;;;;5.10;3.97;;;15.70;99.90;;;15.94;nan;97570.16;4979602;28;20746;-65
2023/10/20 02:14:44;;;;;;;3.97;3.20;;;15.70;99.90;;;15.92;nan;97562.50;4985128;28;20646;-65
2023/10/20 02:17:11;;;;;;;6.40;3.40;;;15.70;99.90;;;15.94;nan;97557.03;4977051;28;20635;-65
2023/10/20 02:19:38;;;;;;;6.60;4.47;;;15.70;99.90;;;15.92;nan;97530.97;4988198;28;21491;-65
2023/10/20 02:22:05;;;;;;;6.00;4.03;;;15.70;99.90;;;15.93;nan;97532.56;4986894;28;20631;-65
2023/10/20 02:24:32;;;;;;;6.30;4.17;;;15.70;99.90;;;15.95;nan;97534.97;4970401;28;20643;-65
2023/10/20 02:26:59;;;;;;;2.83;2.60;;;15.70;99.90;;;15.94;nan;97542.06;4986128;28;20684;-65
2023/10/20 02:29:26;;;;;;;2.63;2.30;;;15.70;99.90;;;15.92;nan;97541.47;4986753;28;20662;-65
2023/10/20 02:31:53;;;;;;;3.70;2.90;;;15.70;99.90;;;15.93;nan;97542.28;4990161;28;21358;-65
2023/10/20 02:34:22;;;;;;;6.30;3.80;;;15.70;99.90;;;15.93;nan;97529.13;4986670;28;20633;-65
2023/10/20 02:36:49;;;;;;;4.10;2.97;;;15.70;99.90;;;15.92;nan;97519.63;4990682;28;21009;-65
2023/10/20 02:39:17;;;;;;;7.00;4.93;;;15.70;99.90;;;15.93;nan;97529.13;4987540;28;20662;-64
2023/10/20 02:41:44;;;;;;;5.50;3.40;;;15.70;99.90;;;15.93;nan;97521.25;4988390;28;20997;-65
2023/10/20 02:44:13;;;;;;;7.47;4.60;;;15.70;99.90;;;15.93;nan;97519.41;4984952;28;20642;-65
2023/10/20 02:46:40;;;;;;;7.63;4.30;;;15.70;99.90;;;15.93;nan;97495.75;4987604;28;20683;-66
2023/10/20 02:49:07;;;;;;;7.17;5.03;;;15.70;99.90;;;15.93;nan;97484.44;4986716;28;20662;-65
2023/10/20 02:51:34;;;;;;;5.00;3.70;;;15.70;99.90;;;15.92;nan;97493.34;4976282;28;20647;-66
2023/10/20 02:54:01;;;;;;;8.47;4.83;;;15.70;99.90;;;15.91;nan;97468.88;4975485;28;21191;-65
2023/10/20 02:56:28;;;;;;;6.13;4.10;;;15.70;99.90;;;15.90;nan;97455.97;4988691;28;20638;-65
2023/10/20 02:58:55;;;;;;;5.30;3.80;;;15.70;99.90;;;15.89;nan;97467.47;4977762;28;20677;-65
2023/10/20 03:01:23;;;;;;;2.93;2.67;;;15.70;99.90;;;15.90;nan;97474.34;4973706;28;20657;-65
2023/10/20 03:03:50;;;;;;;6.50;3.90;;;15.70;99.90;;;15.87;nan;97472.97;4991903;28;20695;-65
2023/10/20 03:06:19;;;;;;;5.87;2.77;;;15.60;99.90;;;15.87;nan;97465.06;4991542;28;21055;-65
2023/10/20 03:08:46;;;;;;;5.40;3.77;;;15.60;99.90;;;15.86;nan;97452.16;4992801;28;20654;-66
2023/10/20 03:11:13;;;;;;;7.17;3.67;;;15.60;99.90;;;15.86;nan;97442.47;4991002;28;20653;-65
2023/10/20 03:13:40;;;;;;;3.50;2.80;;;15.60;99.90;;;15.86;nan;97433.75;4991777;28;20641;-65
2023/10/20 03:16:07;;;;;;;3.73;2.53;;;15.60;99.90;;;15.85;nan;97426.88;4990959;28;20650;-65
2023/10/20 03:18:34;;;;;;;2.47;2.20;;;15.60;99.90;;;15.85;nan;97425.06;4992450;28;20638;-65
2023/10/20 03:21:01;;;;;;;6.23;4.03;;;15.60;99.90;;;15.82;nan;97424.72;4970389;28;20650;-65
2023/10/20 03:23:30;;;;;;;5.30;3.47;;;15.60;99.90;;;15.85;nan;97413.75;4989147;28;20635;-65
2023/10/20 03:25:57;;;;;;;3.53;2.67;;;15.60;99.90;;;15.83;nan;97406.09;4991621;28;20638;-65
2023/10/20 03:28:24;;;;;;;2.33;2.00;;;15.60;99.90;;;15.83;nan;97400.84;4989549;28;20645;-65
2023/10/20 03:30:51;;;;;;;4.47;2.90;;;15.60;99.90;;;15.84;nan;97383.25;4991811;28;21039;-66
2023/10/20 03:33:18;;;;;;;4.93;3.97;;;15.60;99.90;;;15.82;nan;97370.28;4989995;28;20672;-65
2023/10/20 03:35:46;;;;;;;5.23;2.77;;;15.60;99.90;;;15.81;nan;97358.19;4992592;28;20649;-66
2023/10/20 03:38:14;;;;;;;9.60;5.10;;;15.60;99.90;;;15.79;nan;97355.00;4990525;28;20691;-68
2023/10/20 03:40:41;;;;;;;4.27;3.37;;;15.60;99.90;;;15.79;nan;97368.13;4993317;28;20641;-65
2023/10/20 03:43:09;;;;;;;3.80;2.70;;;15.60;99.90;;;15.80;nan;97374.19;4989224;28;20677;-64
2023/10/20 03:45:56;;;;;;;3.17;1.90;;;15.60;99.90;;;15.81;nan;97373.16;4983148;28;20642;-65
2023/10/20 03:48:23;;;;;;;2.33;2.13;;;15.60;99.90;;;15.79;nan;97376.03;4987644;28;21194;-64
2023/10/20 03:50:52;;;;;;;2.67;2.47;;;15.60;99.90;;;15.81;nan;97373.16;4992662;28;20630;-65
2023/10/20 03:53:22;;;;;;;2.50;2.30;;;15.60;99.90;;;15.80;nan;97367.09;4989170;28;20634;-64
2023/10/20 03:56:08;;;;;;;1.90;1.60;;;15.60;99.90;;;15.80;nan;97361.06;4978396;28;20627;-64
2023/10/20 03:58:36;;;;;;;1.60;1.50;;;15.60;99.90;;;15.80;nan;97350.53;4980702;28;20651;-65
2023/10/20 04:01:04;;;;;;;2.37;2.17;;;15.60;99.90;;;15.80;nan;97342.66;4978270;28;20638;-65
2023/10/20 04:03:31;;;;;;;2.17;1.97;;;15.60;99.90;;;15.78;nan;97344.72;4990805;28;20649;-65
2023/10/20 04:06:00;;;;;;;4.10;2.37;;;15.60;99.90;;;15.77;nan;97343.09;4968953;28;21045;-65
2023/10/20 04:08:27;;;;;;;2.33;2.00;;;15.60;99.90;;;15.77;nan;97335.19;4990858;28;20618;-65
2023/10/20 04:10:58;;;;;;;3.40;2.07;;;15.50;99.90;;;15.77;nan;97319.44;4989682;28;20683;-68
2023/10/20 04:13:28;;;;;;;3.83;1.73;;;15.50;99.90;;;15.78;nan;97318.44;4990922;28;20623;-65
2023/10/20 04:15:55;;;;;;;1.80;1.70;;;15.60;99.90;;;15.78;nan;97316.56;4987721;28;20654;-64
2023/10/20 04:18:22;;;;;;;2.00;1.90;;;15.60;99.90;;;15.77;nan;97306.28;4992379;28;20635;-65
2023/10/20 04:20:50;;;;;;;3.10;2.80;;;15.60;99.90;;;15.79;nan;97301.63;4988214;28;21050;-65
2023/10/20 04:23:17;;;;;;;2.93;2.17;;;15.60;99.90;;;15.78;nan;97292.91;4971345;28;21014;-65
2023/10/20 04:25:53;;;;;;;1.60;1.50;;;15.60;99.90;;;15.80;nan;97284.84;4980001;28;20638;-65
2023/10/20 04:53:32;;;;;;;5.50;3.20;;;15.50;99.90;;;15.76;nan;97168.03;4986054;28;21175;-66
2023/10/20 04:58:58;;;;;;;4.60;3.33;;;15.50;99.90;;;15.75;nan;97142.78;4985297;28;21012;-65
2023/10/20 05:01:40;;;;;;;4.07;2.50;;;15.50;99.90;;;15.77;nan;97148.59;4988328;28;20684;-64
2023/10/20 05:07:05;;;;;;;3.70;2.87;;;15.50;99.90;;;15.77;nan;97148.59;4987498;28;20670;-65
2023/10/20 05:09:35;;;;;;;2.50;2.30;;;15.50;99.90;;;15.73;nan;97132.50;4990081;28;20654;-65
2023/10/20 05:12:02;;;;;;;1.73;1.63;;;15.50;99.90;;;15.73;nan;97136.94;4987567;28;20641;-65
2023/10/20 05:14:29;;;;;;;1.97;1.67;;;15.50;99.90;;;15.75;nan;97142.78;4987777;28;20642;-65
2023/10/20 05:16:57;;;;;;;1.83;1.70;;;15.50;99.90;;;15.71;nan;97131.94;4986334;28;20645;-65
2023/10/20 05:19:25;;;;;;;1.63;1.53;;;15.50;99.90;;;15.72;nan;97120.38;4989652;28;21227;-65
2023/10/20 05:21:53;;;;;;;2.60;2.33;;;15.50;99.90;;;15.70;nan;97122.44;4981895;28;20642;-65
2023/10/20 05:24:20;;;;;;;3.07;1.63;;;15.50;99.90;;;15.69;nan;97102.44;4982339;28;20994;-65
2023/10/20 05:26:47;;;;;;;2.13;1.93;;;15.50;99.90;;;15.70;nan;97095.34;4989726;28;20662;-65
2023/10/20 05:29:14;;;;;;;2.43;2.00;;;15.50;99.90;;;15.70;nan;97096.16;4982411;28;20658;-65
2023/10/20 05:31:41;;;;;;;2.73;2.20;;;15.50;99.90;;;15.70;nan;97079.59;4988505;28;20630;-66
2023/10/20 05:34:09;;;;;;;3.03;2.20;;;15.50;99.90;;;15.70;nan;97075.13;4987507;28;21163;-65
2023/10/20 05:36:36;;;;;;;4.07;3.00;;;15.50;99.90;;;15.69;nan;97072.75;4988159;28;20638;-65
2023/10/20 05:39:03;;;;;;;2.33;2.13;;;15.50;99.90;;;15.68;nan;97069.31;4987114;28;20665;-65
2023/10/20 05:41:30;;;;;;;4.50;3.27;;;15.50;99.90;;;15.70;nan;97063.81;4987418;28;20630;-65
2023/10/20 05:43:57;;;;;;;2.63;2.50;;;15.50;99.90;;;15.71;nan;97049.66;4987734;28;21179;-65
2023/10/20 05:46:24;;;;;;;1.90;1.70;;;15.50;99.90;;;15.69;nan;97041.22;4986253;28;20652;-64
2023/10/20 05:48:51;;;;;;;1.23;1.23;;;15.50;99.90;;;15.68;nan;97040.41;4988822;28;20674;-65
2023/10/20 05:51:18;;;;;;;0.90;0.90;;;15.50;99.90;;;15.67;nan;97036.19;4977545;28;20642;-65
2023/10/20 05:53:45;;;;;;;1.83;1.73;;;15.40;99.90;;;15.67;nan;97022.25;4987585;28;20622;-65
2023/10/20 05:56:12;;;;;;;4.97;3.90;;;15.40;99.90;;;15.67;nan;97017.00;4981563;28;20641;-65
2023/10/20 05:58:40;;;;;;;3.30;2.70;;;15.40;99.90;;;15.67;nan;97014.38;4972234;28;21310;-65
2023/10/20 06:01:09;;;;;;;3.03;2.83;;;15.40;99.90;;;15.66;nan;97015.38;4978418;28;20992;-64
2023/10/20 06:03:37;;;;;;;3.70;2.63;;;15.40;99.90;;;15.65;nan;97008.53;4990290;28;21204;-65
2023/10/20 06:06:05;;;;;;;2.80;2.60;;;15.40;99.90;;;15.64;nan;96993.78;4991536;28;20738;-65
2023/10/20 06:08:31;;;;;;;4.97;3.20;;;15.40;99.90;;;15.59;nan;96972.69;4994311;28;21251;-65
2023/10/20 06:11:03;;;;;;;3.50;2.13;;;15.40;99.90;;;15.58;nan;96971.88;4995387;28;20642;-65
2023/10/20 06:13:32;;;;;;;2.57;1.90;;;15.30;99.90;;;15.58;nan;96971.06;4990452;28;20618;-66
2023/10/20 06:16:13;;;;;;;2.27;2.03;;;15.30;99.90;;;15.59;nan;96968.19;4986941;28;20639;-66
2023/10/20 06:18:42;;;;;;;1.53;1.43;;;15.40;99.90;;;15.58;nan;96971.88;4985859;28;20658;-65
2023/10/20 06:21:14;;;;;;;1.10;1.10;;;15.40;99.90;;;15.61;nan;96968.00;4990659;28;21195;-65
2023/10/20 06:23:41;;;;;;;1.53;1.40;;;15.40;99.90;;;15.59;nan;96956.91;4991656;28;20641;-65
2023/10/20 06:26:09;;;;;;;1.50;1.40;;;15.40;99.90;;;15.61;nan;96949.59;4992395;28;20635;-66
2023/10/20 06:28:36;;;;;;;2.47;2.37;;;15.40;99.90;;;15.62;nan;96941.47;4989863;28;20713;-65
2023/10/20 06:31:27;;;;;;;5.70;5.30;;;15.40;99.90;;;15.60;nan;96922.53;4985761;28;20627;-65
2023/10/20 06:34:17;;;;;;;14.00;13.10;;;15.40;99.90;;;15.60;nan;96926.97;4977136;28;21052;-66
2023/10/20 06:36:46;;;;;;;17.67;16.57;;;15.40;99.90;;;15.61;nan;96918.06;4979740;28;21011;-65
2023/10/20 06:39:14;;;;;;;22.70;21.37;;;15.40;99.90;;;15.61;nan;96908.34;4992991;28;20663;-65
2023/10/20 06:41:41;;;;;;;45.37;41.63;;;15.40;99.90;;;15.60;nan;96905.94;4995830;28;20630;-64
2023/10/20 06:44:08;;;;;;;55.30;50.40;;;15.40;99.90;;;15.60;nan;96898.06;4992405;28;21005;-64
2023/10/20 06:46:35;;;;;;;61.93;56.40;;;15.40;99.90;;;15.61;nan;96902.31;4981827;28;21169;-65
2023/10/20 06:49:04;;;;;;;85.60;76.40;;;15.40;99.90;;;15.60;nan;96892.81;4987428;28;20678;-65
2023/10/20 06:51:31;;;;;;;87.70;77.63;;;15.40;99.90;;;15.60;nan;96891.00;4974487;28;20654;-65
2023/10/20 06:53:58;;;;;;;95.77;83.00;;;15.40;99.90;;;15.61;nan;96876.03;4988460;28;20638;-65
2023/10/20 06:56:25;;;;;;;123.17;92.43;;;15.40;99.90;;;15.60;nan;96875.22;4982472;28;20639;-65
2023/10/20 06:58:54;;;;;;;120.13;90.17;;;15.40;99.90;;;15.62;nan;96877.63;4969666;28;20666;-65
2023/10/20 07:01:21;;;;;;;110.80;91.53;;;15.40;99.90;;;15.62;nan;96861.84;4977091;28;20642;-65
2023/10/20 07:03:48;;;;;;;82.80;73.53;;;15.40;99.90;;;15.63;nan;96863.47;4986646;28;21167;-65
2023/10/20 07:06:15;;;;;;;149.07;106.33;;;15.40;99.90;;;15.63;nan;96858.22;4989667;28;21013;-65
2023/10/20 07:08:42;;;;;;;161.27;107.13;;;15.40;99.90;;;15.64;nan;96859.78;4992684;28;20700;-65
2023/10/20 07:11:09;;;;;;;94.37;80.87;;;15.40;99.90;;;15.64;nan;96859.78;4990397;28;20635;-65
2023/10/20 07:13:37;;;;;;;116.67;88.57;;;15.40;99.90;;;15.62;nan;96849.53;4992887;28;20647;-64
2023/10/20 07:16:04;;;;;;;111.10;83.50;;;15.40;99.90;;;15.61;nan;96849.78;4984593;28;20688;-65
2023/10/20 07:18:32;;;;;;;160.40;102.50;;;15.40;99.90;;;15.60;nan;96854.22;4985193;28;20646;-65
2023/10/20 07:20:59;;;;;;;151.93;96.00;;;15.40;99.90;;;15.60;nan;96840.28;4993185;28;21029;-65
2023/10/20 07:23:26;;;;;;;159.90;102.87;;;15.40;99.90;;;15.63;nan;96848.47;4988188;28;20731;-66
2023/10/20 07:25:53;;;;;;;133.77;94.43;;;15.40;99.90;;;15.66;nan;96849.84;4974548;28;20641;-65
2023/10/20 07:28:21;;;;;;;168.43;101.47;;;15.40;99.90;;;15.70;nan;96853.59;4989649;28;21605;-65
2023/10/20 07:30:49;;;;;;;181.50;100.37;;;15.50;99.90;;;15.72;nan;96844.47;4984827;28;21178;-65
2023/10/20 07:33:16;;;;;;;192.97;105.27;;;15.50;99.90;;;15.76;nan;96842.19;4979058;28;20989;-65
2023/10/20 07:35:43;;;;;;;247.63;111.90;;;15.60;99.90;;;15.77;nan;96836.69;4987939;28;20640;-65
2023/10/20 07:38:12;;;;;;;263.50;104.57;;;15.60;99.90;;;15.80;nan;96838.06;4989724;28;20718;-65
2023/10/20 07:40:40;;;;;;;273.73;110.00;;;15.60;99.90;;;15.81;nan;96835.19;4990603;28;20662;-65
2023/10/20 07:43:07;;;;;;;246.67;102.13;;;15.60;99.90;;;15.84;nan;96832.09;4991931;28;20645;-65
2023/10/20 07:45:40;;;;;;;292.93;109.57;;;15.60;99.90;;;15.88;nan;96835.84;4982909;28;21188;-65
2023/10/20 07:48:09;;;;;;;350.83;115.73;;;15.70;99.90;;;15.94;nan;96849.88;4974741;28;21555;-65
2023/10/20 07:50:37;;;;;;;440.80;126.70;;;15.70;99.90;;;15.97;nan;96854.66;4981184;28;20662;-65
2023/10/20 07:53:05;;;;;;;526.70;132.73;;;15.80;99.90;;;16.00;nan;96851.56;4991436;28;20638;-65
2023/10/20 07:55:32;;;;;;;552.63;145.33;;;15.80;99.90;;;16.02;nan;96855.53;4984560;28;20682;-65
2023/10/20 07:57:58;;;;;;;534.40;139.73;;;15.80;99.90;;;16.04;nan;96855.31;4991355;28;20912;-66
2023/10/20 08:00:25;;;;;;;509.57;138.60;;;15.80;99.90;;;16.05;nan;96857.72;4988544;28;20662;-66
2023/10/20 08:02:53;;;;;;;478.43;134.87;;;15.80;99.90;;;16.06;nan;96858.50;4992050;28;20642;-65
2023/10/20 08:05:24;;;;;;;440.20;125.67;;;15.80;99.90;;;16.05;nan;96875.31;4988091;28;20634;-65
2023/10/20 08:07:53;;;;;;;466.43;127.00;;;15.90;99.90;;;16.06;nan;96869.00;4988356;28;20736;-65
2023/10/20 08:10:21;;;;;;;461.53;131.43;;;15.80;99.90;;;16.09;nan;96879.06;4989479;28;20665;-66
2023/10/20 08:12:48;;;;;;;477.50;136.90;;;15.80;99.90;;;16.11;nan;96890.16;4989885;28;20638;-65
2023/10/20 08:15:16;;;;;;;504.17;137.33;;;15.90;99.90;;;16.12;nan;96895.16;4987733;28;20642;-66
2023/10/20 08:17:45;;;;;;;496.17;132.03;;;15.90;99.90;;;16.13;nan;96890.72;4991329;28;20630;-66
2023/10/20 08:20:12;;;;;;;509.33;138.07;;;15.90;99.90;;;16.15;nan;96891.28;4989580;28;20716;-66
2023/10/20 08:22:40;;;;;;;457.20;133.10;;;15.90;99.90;;;16.16;nan;96888.41;4988913;28;20626;-65
2023/10/20 08:25:08;;;;;;;444.03;135.33;;;15.90;99.90;;;16.17;nan;96897.91;4989963;28;20622;-66
2023/10/20 08:27:36;;;;;;;455.47;131.77;;;15.90;99.90;;;16.20;nan;96899.25;4989463;28;21034;-65
2023/10/20 08:30:04;;;;;;;472.10;139.23;;;15.90;99.90;;;16.21;nan;96924.50;4989750;28;20657;-65
2023/10/20 08:32:32;;;;;;;473.43;135.97;;;16.00;99.90;;;16.21;nan;96935.03;4991406;28;20645;-65
2023/10/20 08:34:59;;;;;;;485.20;136.37;;;16.00;99.90;;;16.18;nan;96946.03;4987815;28;20636;-65
2023/10/20 08:37:26;;;;;;;502.70;137.40;;;16.00;99.90;;;16.17;nan;96952.31;4983538;28;20638;-66
2023/10/20 08:39:54;;;;;;;524.27;138.33;;;16.00;99.90;;;16.19;nan;96947.63;4986833;28;21242;-66
2023/10/20 08:42:24;;;;;;;542.43;141.77;;;15.90;99.90;;;16.18;nan;96959.19;4982909;28;20637;-65
2023/10/20 08:44:51;;;;;;;563.90;141.93;;;15.90;99.90;;;16.23;nan;96954.00;4980354;28;20619;-64
2023/10/20 08:47:21;;;;;;;600.13;146.73;;;16.00;99.90;;;16.29;nan;96955.72;4988889;28;20627;-66
2023/10/20 08:49:49;;;;;;;626.27;154.60;;;16.00;99.90;;;16.40;nan;96970.63;4987010;28;21519;-65
2023/10/20 08:52:18;;;;;;;622.20;158.47;;;16.10;99.90;;;16.45;nan;96965.47;4990235;28;20708;-65
2023/10/20 08:54:48;;;;;;;601.13;155.03;;;16.20;99.90;;;16.46;nan;96977.56;4983577;28;20662;-66
2023/10/20 08:57:15;;;;;;;608.23;153.43;;;16.20;99.90;;;16.47;nan;96988.91;4990199;28;20634;-66
2023/10/20 08:59:51;;;;;;;626.20;160.50;;;16.20;99.90;;;16.48;nan;97001.03;4990425;28;20666;-65
2023/10/20 09:02:19;;;;;;;640.67;165.73;;;16.20;99.90;;;16.46;nan;97001.25;4986341;28;20630;-65
2023/10/20 09:04:53;;;;;;;616.77;156.10;;;16.20;99.90;;;16.48;nan;97003.66;4988892;28;20754;-66
2023/10/20 09:07:23;;;;;;;609.70;155.20;;;16.20;99.90;;;16.48;nan;97008.94;4987797;28;20626;-64
2023/10/20 09:09:51;;;;;;;637.67;163.20;;;16.20;99.90;;;16.47;nan;97023.91;4988716;28;20670;-65
2023/10/20 09:12:18;;;;;;;638.37;161.83;;;16.20;99.90;;;16.41;nan;97045.91;4990314;28;20637;-65
2023/10/20 09:14:45;;;;;;;640.47;164.13;;;16.20;99.90;;;16.42;nan;97044.84;4987671;28;20638;-66
2023/10/20 09:17:22;;;;;;;639.70;164.10;;;16.10;99.90;;;16.42;nan;97044.06;4989934;28;21195;-65
2023/10/20 09:19:49;;;;;;;636.57;163.50;;;16.20;99.90;;;16.48;nan;97046.56;4986847;28;20688;-66
2023/10/20 09:22:28;;;;;;;638.43;169.23;;;16.20;99.90;;;16.56;nan;97030.44;4986475;28;21578;-65
2023/10/20 09:24:56;;;;;;;639.03;165.40;;;16.30;99.90;;;16.69;nan;97037.25;4983564;28;20630;-65
2023/10/20 09:27:24;;;;;;;650.57;178.00;;;16.40;99.90;;;16.83;nan;97052.53;4989753;28;20692;-66
2023/10/20 09:29:55;;;;;;;646.77;178.43;;;16.50;99.90;;;16.94;nan;97054.31;4984451;28;20685;-65
2023/10/20 09:32:23;;;;;;;641.20;173.07;;;16.60;99.90;;;16.99;nan;97057.00;4974320;28;20651;-66
2023/10/20 09:34:50;;;;;;;649.20;179.70;;;16.70;99.90;;;17.00;nan;97042.00;4986850;28;20638;-66
2023/10/20 09:37:23;;;;;;;640.63;176.27;;;16.70;99.90;;;16.99;nan;97041.22;4988492;28;21253;-66
2023/10/20 09:40:02;;;;;;;628.80;164.00;;;16.80;99.90;;;16.92;nan;97047.66;4980254;28;20753;-65
2023/10/20 09:42:30;;;;;;;636.17;171.80;;;16.70;99.90;;;16.87;nan;97053.66;4980889;28;20630;-65
2023/10/20 09:45:14;;;;;;;635.43;166.37;;;16.60;99.90;;;16.85;nan;97053.09;4981538;28;20638;-66
2023/10/20 09:47:44;;;;;;;629.30;161.27;;;16.60;99.90;;;16.84;nan;97056.78;4979901;28;20637;-65
2023/10/20 09:50:18;;;;;;;631.67;170.30;;;16.60;99.90;;;16.75;nan;97052.91;4982187;28;20650;-65
2023/10/20 09:52:46;;;;;;;618.97;158.17;;;16.50;99.90;;;16.63;nan;97051.34;4984189;28;20664;-65
2023/10/20 09:55:14;;;;;;;615.13;156.40;;;16.40;99.90;;;16.58;nan;97052.06;4985652;28;20643;-65
2023/10/20 09:57:41;;;;;;;616.77;155.50;;;16.30;99.90;;;16.58;nan;97065.22;4973980;28;20878;-65
2023/10/20 10:00:08;;;;;;;601.53;138.07;;;16.30;99.90;;;16.57;nan;97055.69;4977309;28;20697;-65
2023/10/20 10:02:35;;;;;;;609.47;148.00;;;16.30;99.90;;;16.60;nan;97055.25;4987235;28;20638;-65
2023/10/20 10:05:03;;;;;;;619.20;151.73;;;16.30;99.90;;;16.65;nan;97057.97;4988495;28;20643;-66
2023/10/20 10:07:34;;;;;;;622.57;155.60;;;16.30;99.90;;;16.71;nan;97056.25;4980156;28;21346;-65
2023/10/20 10:10:02;;;;;;;618.47;151.27;;;16.40;99.90;;;16.73;nan;97048.91;4972810;28;20724;-65
2023/10/20 10:12:32;;;;;;;628.93;165.67;;;16.40;99.90;;;16.76;nan;97053.72;4983412;28;20634;-66
2023/10/20 10:15:12;;;;;;;631.73;171.57;;;16.50;99.90;;;16.76;nan;97054.50;4985593;28;20601;-64
2023/10/20 10:17:45;;;;;;;627.60;164.70;;;16.50;99.90;;;16.81;nan;97053.78;4985192;28;20718;-65
2023/10/20 10:20:24;;;;;;;623.17;162.07;;;16.50;99.90;;;16.95;nan;97058.53;4985910;28;20666;-65
2023/10/20 10:23:04;;;;;;;632.60;171.63;;;16.60;99.90;;;17.03;nan;97060.78;4983158;28;21035;-65
2023/10/20 10:25:40;;;;;;;626.03;162.60;;;16.70;99.90;;;17.08;nan;97065.31;4975752;28;20649;-65
2023/10/20 10:28:15;;;;;;;623.70;162.30;;;16.80;99.90;;;17.15;nan;97055.44;4978508;28;20703;-65
2023/10/20 10:30:45;;;;;;;629.73;165.70;;;16.90;99.90;;;17.21;nan;97053.69;4985408;28;21194;-66
2023/10/20 10:33:12;;;;;;;630.30;172.63;;;16.90;99.90;;;17.25;nan;97073.28;4985365;28;20634;-66
2023/10/20 10:35:40;;;;;;;627.07;162.27;;;16.90;99.90;;;17.32;nan;97073.91;4965812;28;20634;-65
2023/10/20 10:38:21;;;;;;;628.33;167.37;;;17.00;99.90;;;17.38;nan;97071.09;4956017;28;20634;-66
2023/10/20 10:40:51;;;;;;;628.47;166.73;;;17.10;99.90;;;17.38;nan;97062.41;4969531;28;20639;-64
2023/10/20 10:43:19;;;;;;;624.93;170.70;;;17.10;99.90;;;17.38;nan;97065.84;4976870;28;20633;-65
2023/10/20 10:45:54;;;;;;;617.40;155.73;;;17.10;99.90;;;17.38;nan;97059.75;4987908;28;20630;-64
2023/10/20 10:48:29;;;;;;;620.83;169.30;;;17.10;99.90;;;17.42;nan;97069.59;4985829;28;20658;-64
2023/10/20 10:50:56;;;;;;;606.87;143.73;;;17.10;99.90;;;17.44;nan;97078.06;4979295;28;20620;-64
2023/10/20 10:53:26;;;;;;;603.30;143.57;;;17.20;99.90;;;17.45;nan;97073.59;4978120;28;20631;-64
2023/10/20 10:55:54;;;;;;;600.83;145.10;;;17.10;99.90;;;17.43;nan;97078.31;4971940;28;20204;-64
2023/10/20 10:58:23;;;;;;;608.95;149.18;;;17.10;99.90;;;17.37;nan;97064.25;4974362;28;20235;-64
2023/10/20 11:00:50;;;;;;;602.57;144.13;;;17.10;99.90;;;17.36;nan;97052.09;4988149;28;20602;-65